Hlavní strana
METAR-TAF:

METAR-TAF

Letiště :

Letiště Tallinn

Tallinn, Estonsko

zeměpisná šířka: 59-23N, zeměpisná délka: 024-35E, výška: 44 m

Aktuální stav počasí

Zpráva byla vytvořena před 24 minutami, v 12:20 UTC
Severozápadní vítr 10 kt
Teplota 18°C
Vlhkost vzduchu 34%
Tlak 1029 hPa
Viditelnost 10 km a více
Žádná oblačnost pod 1500 m, nevyskytují se cumulonimby.

METAR: EETN 231220Z 31010KT CAVOK 18/02 Q1029 NOSIG

Čas: 15:44 (12:44 UTC)

Předpověď počasí

Zpráva byla vytvořena před 1 hodinou a 24 minutami, v 11:20 UTC
Předpověď platná od 23 v 12 UTC do 24 v 12 UTC
Severozápadní vítr 10 kt
Viditelnost 10 km a více
Žádná oblačnost pod 1500 m, nevyskytují se cumulonimby.
Změna
od 23 v 17 UTC do 23 v 18 UTC
vítr z různých směrů 2 kt
Pravděpodobnost 30% :
Dočasný
od 23 v 22 UTC do 24 v 02 UTC
Viditelnost: 3000 m
Přízemní mlha
Dočasný
od 24 v 06 UTC do 24 v 12 UTC
Jižní vítr 10 kt

TAF: EETN 231120Z 2312/2412 32010KT CAVOK BECMG 2317/2318 VRB02KT PROB30 TEMPO 2322/2402 3000 MIFG TEMPO 2406/2412 17010KT

Stav a předpovědi počasí z více než 4 000 letišť (zprávy METAR a TAF).

Červené a žluté tečky na mapě představují dostupné meteorologické stanice.

Když kurzor umístíte na tečku, zobrazí se název stanice.

Pak kliknutím zobrazíte stav a předpověď počasí.

Chcete-li změnit mapu, kliknutím na zelené tlačítko se znaménkem +mapu přiblížíte, kliknutím na zelené tlačítko se znaménkem – mapu oddálíte a kliknutím na zelené šipky přejdete na sousední mapy.


METAR-TAF: